sensor_id;sensor_type;location;lat;lon;timestamp;P1;durP1;ratioP1;P2;durP2;ratioP2
70414;SDS011;57837;52.064;113.478;2024-01-06T00:01:49;4.00;;;3.17;;
70414;SDS011;57837;52.064;113.478;2024-01-06T00:04:53;3.38;;;2.55;;
70414;SDS011;57837;52.064;113.478;2024-01-06T00:07:57;4.00;;;3.75;;
70414;SDS011;57837;52.064;113.478;2024-01-06T00:11:00;4.17;;;2.03;;
70414;SDS011;57837;52.064;113.478;2024-01-06T00:14:06;4.50;;;2.38;;
70414;SDS011;57837;52.064;113.478;2024-01-06T00:17:09;6.07;;;1.65;;
70414;SDS011;57837;52.064;113.478;2024-01-06T00:20:13;6.53;;;2.67;;
70414;SDS011;57837;52.064;113.478;2024-01-06T00:23:17;3.53;;;2.95;;
70414;SDS011;57837;52.064;113.478;2024-01-06T00:26:21;4.57;;;4.28;;
70414;SDS011;57837;52.064;113.478;2024-01-06T00:29:27;6.47;;;5.55;;
70414;SDS011;57837;52.064;113.478;2024-01-06T00:32:31;17.83;;;11.37;;
70414;SDS011;57837;52.064;113.478;2024-01-06T00:35:39;6.13;;;4.63;;
70414;SDS011;57837;52.064;113.478;2024-01-06T00:38:43;10.85;;;6.15;;
70414;SDS011;57837;52.064;113.478;2024-01-06T00:41:47;8.10;;;7.10;;
70414;SDS011;57837;52.064;113.478;2024-01-06T00:44:50;2.50;;;2.28;;
70414;SDS011;57837;52.064;113.478;2024-01-06T00:47:54;8.05;;;5.95;;
70414;SDS011;57837;52.064;113.478;2024-01-06T00:50:58;16.20;;;11.32;;
70414;SDS011;57837;52.064;113.478;2024-01-06T00:54:02;6.68;;;6.00;;
70414;SDS011;57837;52.064;113.478;2024-01-06T00:57:06;3.28;;;2.88;;
70414;SDS011;57837;52.064;113.478;2024-01-06T01:00:10;4.45;;;2.83;;
70414;SDS011;57837;52.064;113.478;2024-01-06T01:03:14;7.93;;;5.67;;
70414;SDS011;57837;52.064;113.478;2024-01-06T01:06:19;16.58;;;6.40;;
70414;SDS011;57837;52.064;113.478;2024-01-06T01:09:22;9.80;;;4.82;;
70414;SDS011;57837;52.064;113.478;2024-01-06T01:12:26;12.13;;;4.47;;
70414;SDS011;57837;52.064;113.478;2024-01-06T01:15:30;6.35;;;3.83;;
70414;SDS011;57837;52.064;113.478;2024-01-06T01:18:34;15.10;;;5.30;;
70414;SDS011;57837;52.064;113.478;2024-01-06T01:21:38;3.33;;;3.03;;
70414;SDS011;57837;52.064;113.478;2024-01-06T01:24:42;6.05;;;4.30;;
70414;SDS011;57837;52.064;113.478;2024-01-06T01:27:46;4.28;;;3.63;;
70414;SDS011;57837;52.064;113.478;2024-01-06T01:30:50;4.93;;;4.00;;
70414;SDS011;57837;52.064;113.478;2024-01-06T01:33:54;5.30;;;4.33;;
70414;SDS011;57837;52.064;113.478;2024-01-06T01:36:59;9.82;;;8.15;;
70414;SDS011;57837;52.064;113.478;2024-01-06T01:40:03;14.35;;;6.53;;
70414;SDS011;57837;52.064;113.478;2024-01-06T01:43:32;6.00;;;5.47;;
70414;SDS011;57837;52.064;113.478;2024-01-06T01:46:36;15.80;;;7.55;;
70414;SDS011;57837;52.064;113.478;2024-01-06T01:49:40;12.32;;;3.60;;
70414;SDS011;57837;52.064;113.478;2024-01-06T01:52:43;6.22;;;4.63;;
70414;SDS011;57837;52.064;113.478;2024-01-06T01:55:48;8.27;;;6.55;;
70414;SDS011;57837;52.064;113.478;2024-01-06T01:58:52;20.85;;;12.25;;
70414;SDS011;57837;52.064;113.478;2024-01-06T02:01:57;4.30;;;3.88;;
70414;SDS011;57837;52.064;113.478;2024-01-06T02:05:00;33.23;;;14.03;;
70414;SDS011;57837;52.064;113.478;2024-01-06T02:08:04;65.32;;;20.60;;
70414;SDS011;57837;52.064;113.478;2024-01-06T02:11:08;11.55;;;8.63;;
70414;SDS011;57837;52.064;113.478;2024-01-06T02:14:12;17.03;;;13.50;;
70414;SDS011;57837;52.064;113.478;2024-01-06T02:17:15;30.77;;;11.43;;
70414;SDS011;57837;52.064;113.478;2024-01-06T02:20:19;17.15;;;6.00;;
70414;SDS011;57837;52.064;113.478;2024-01-06T02:23:23;33.17;;;14.40;;
70414;SDS011;57837;52.064;113.478;2024-01-06T02:26:26;32.03;;;13.18;;
70414;SDS011;57837;52.064;113.478;2024-01-06T02:29:30;17.20;;;8.00;;
70414;SDS011;57837;52.064;113.478;2024-01-06T02:32:33;10.13;;;5.43;;
70414;SDS011;57837;52.064;113.478;2024-01-06T02:35:37;2.03;;;1.90;;
70414;SDS011;57837;52.064;113.478;2024-01-06T02:38:43;9.32;;;7.47;;
70414;SDS011;57837;52.064;113.478;2024-01-06T02:41:47;22.83;;;11.40;;
70414;SDS011;57837;52.064;113.478;2024-01-06T02:44:50;20.40;;;9.17;;
70414;SDS011;57837;52.064;113.478;2024-01-06T02:47:54;17.15;;;11.02;;
70414;SDS011;57837;52.064;113.478;2024-01-06T02:50:58;26.60;;;8.80;;
70414;SDS011;57837;52.064;113.478;2024-01-06T02:54:02;26.58;;;18.17;;
70414;SDS011;57837;52.064;113.478;2024-01-06T02:57:07;14.57;;;10.45;;
70414;SDS011;57837;52.064;113.478;2024-01-06T03:00:10;32.53;;;11.82;;
70414;SDS011;57837;52.064;113.478;2024-01-06T03:03:16;27.08;;;15.40;;
70414;SDS011;57837;52.064;113.478;2024-01-06T03:06:20;5.13;;;4.67;;
70414;SDS011;57837;52.064;113.478;2024-01-06T03:09:24;28.45;;;14.88;;
70414;SDS011;57837;52.064;113.478;2024-01-06T03:12:28;56.30;;;25.48;;
70414;SDS011;57837;52.064;113.478;2024-01-06T03:15:32;22.93;;;14.23;;
70414;SDS011;57837;52.064;113.478;2024-01-06T03:18:36;60.03;;;29.95;;
70414;SDS011;57837;52.064;113.478;2024-01-06T03:21:40;45.05;;;30.33;;
70414;SDS011;57837;52.064;113.478;2024-01-06T03:24:44;78.55;;;33.50;;
70414;SDS011;57837;52.064;113.478;2024-01-06T03:27:48;45.25;;;32.88;;
70414;SDS011;57837;52.064;113.478;2024-01-06T03:30:52;41.50;;;29.75;;
70414;SDS011;57837;52.064;113.478;2024-01-06T03:33:56;91.38;;;46.20;;
70414;SDS011;57837;52.064;113.478;2024-01-06T03:37:01;95.13;;;46.03;;
70414;SDS011;57837;52.064;113.478;2024-01-06T03:40:29;81.45;;;41.08;;
70414;SDS011;57837;52.064;113.478;2024-01-06T03:43:32;63.33;;;35.55;;
70414;SDS011;57837;52.064;113.478;2024-01-06T03:46:35;85.03;;;46.00;;
70414;SDS011;57837;52.064;113.478;2024-01-06T03:49:39;48.78;;;22.52;;
70414;SDS011;57837;52.064;113.478;2024-01-06T03:52:43;116.68;;;54.80;;
70414;SDS011;57837;52.064;113.478;2024-01-06T03:55:47;140.57;;;59.78;;
70414;SDS011;57837;52.064;113.478;2024-01-06T03:58:50;45.08;;;31.38;;
70414;SDS011;57837;52.064;113.478;2024-01-06T04:01:54;54.10;;;29.73;;
70414;SDS011;57837;52.064;113.478;2024-01-06T04:04:57;80.20;;;36.22;;
70414;SDS011;57837;52.064;113.478;2024-01-06T04:08:00;47.53;;;27.00;;
70414;SDS011;57837;52.064;113.478;2024-01-06T04:11:03;35.47;;;23.88;;
70414;SDS011;57837;52.064;113.478;2024-01-06T04:14:06;63.55;;;25.73;;
70414;SDS011;57837;52.064;113.478;2024-01-06T04:17:10;63.63;;;27.10;;
70414;SDS011;57837;52.064;113.478;2024-01-06T04:20:13;22.23;;;15.75;;
70414;SDS011;57837;52.064;113.478;2024-01-06T04:23:17;34.08;;;23.40;;
70414;SDS011;57837;52.064;113.478;2024-01-06T04:26:24;15.38;;;11.68;;
70414;SDS011;57837;52.064;113.478;2024-01-06T04:29:28;20.67;;;17.33;;
70414;SDS011;57837;52.064;113.478;2024-01-06T04:32:31;34.92;;;18.50;;
70414;SDS011;57837;52.064;113.478;2024-01-06T04:35:34;16.85;;;13.07;;
70414;SDS011;57837;52.064;113.478;2024-01-06T04:38:38;22.10;;;12.30;;
70414;SDS011;57837;52.064;113.478;2024-01-06T04:41:43;9.65;;;8.95;;
70414;SDS011;57837;52.064;113.478;2024-01-06T04:44:46;8.20;;;5.50;;
70414;SDS011;57837;52.064;113.478;2024-01-06T04:47:53;12.67;;;8.33;;
70414;SDS011;57837;52.064;113.478;2024-01-06T04:50:57;11.48;;;5.95;;
70414;SDS011;57837;52.064;113.478;2024-01-06T04:54:01;5.78;;;5.13;;
70414;SDS011;57837;52.064;113.478;2024-01-06T04:57:04;4.75;;;3.67;;
70414;SDS011;57837;52.064;113.478;2024-01-06T05:00:08;3.33;;;3.03;;
70414;SDS011;57837;52.064;113.478;2024-01-06T05:03:12;3.58;;;3.28;;
70414;SDS011;57837;52.064;113.478;2024-01-06T05:06:15;0.70;;;0.70;;
70414;SDS011;57837;52.064;113.478;2024-01-06T05:09:20;16.07;;;7.13;;
70414;SDS011;57837;52.064;113.478;2024-01-06T05:12:23;9.95;;;4.55;;
70414;SDS011;57837;52.064;113.478;2024-01-06T05:15:27;16.10;;;7.75;;
70414;SDS011;57837;52.064;113.478;2024-01-06T05:18:30;7.37;;;6.60;;
70414;SDS011;57837;52.064;113.478;2024-01-06T05:21:34;5.90;;;4.40;;
70414;SDS011;57837;52.064;113.478;2024-01-06T05:24:38;3.80;;;2.17;;
70414;SDS011;57837;52.064;113.478;2024-01-06T05:27:44;15.35;;;8.05;;
70414;SDS011;57837;52.064;113.478;2024-01-06T05:30:48;14.07;;;6.78;;
70414;SDS011;57837;52.064;113.478;2024-01-06T05:33:52;7.18;;;4.78;;
70414;SDS011;57837;52.064;113.478;2024-01-06T05:36:56;23.02;;;9.95;;
70414;SDS011;57837;52.064;113.478;2024-01-06T05:40:00;10.27;;;9.17;;
70414;SDS011;57837;52.064;113.478;2024-01-06T05:43:06;30.80;;;13.57;;
70414;SDS011;57837;52.064;113.478;2024-01-06T05:46:11;28.85;;;9.93;;
70414;SDS011;57837;52.064;113.478;2024-01-06T05:49:14;9.33;;;5.40;;
70414;SDS011;57837;52.064;113.478;2024-01-06T05:52:17;4.00;;;3.22;;
70414;SDS011;57837;52.064;113.478;2024-01-06T05:55:21;9.75;;;4.70;;
70414;SDS011;57837;52.064;113.478;2024-01-06T05:58:27;9.35;;;5.75;;
70414;SDS011;57837;52.064;113.478;2024-01-06T06:01:30;23.92;;;7.25;;
70414;SDS011;57837;52.064;113.478;2024-01-06T06:04:33;11.57;;;2.92;;
70414;SDS011;57837;52.064;113.478;2024-01-06T06:07:39;12.65;;;8.52;;
70414;SDS011;57837;52.064;113.478;2024-01-06T06:10:43;23.53;;;8.90;;
70414;SDS011;57837;52.064;113.478;2024-01-06T06:14:07;32.17;;;12.32;;
70414;SDS011;57837;52.064;113.478;2024-01-06T06:17:11;14.20;;;7.35;;
70414;SDS011;57837;52.064;113.478;2024-01-06T06:20:14;9.23;;;2.93;;
70414;SDS011;57837;52.064;113.478;2024-01-06T06:23:19;3.65;;;2.25;;
70414;SDS011;57837;52.064;113.478;2024-01-06T06:26:22;11.35;;;5.85;;
70414;SDS011;57837;52.064;113.478;2024-01-06T06:29:26;24.50;;;12.32;;
70414;SDS011;57837;52.064;113.478;2024-01-06T06:32:31;9.15;;;7.80;;
70414;SDS011;57837;52.064;113.478;2024-01-06T06:35:36;5.57;;;4.82;;
70414;SDS011;57837;52.064;113.478;2024-01-06T06:38:39;21.15;;;11.05;;
70414;SDS011;57837;52.064;113.478;2024-01-06T06:42:07;4.03;;;3.10;;
70414;SDS011;57837;52.064;113.478;2024-01-06T06:45:11;17.60;;;9.95;;
70414;SDS011;57837;52.064;113.478;2024-01-06T06:48:15;6.85;;;4.25;;
70414;SDS011;57837;52.064;113.478;2024-01-06T06:51:21;10.10;;;7.70;;
70414;SDS011;57837;52.064;113.478;2024-01-06T06:54:28;5.13;;;2.88;;
70414;SDS011;57837;52.064;113.478;2024-01-06T06:57:31;4.57;;;3.20;;
70414;SDS011;57837;52.064;113.478;2024-01-06T07:00:36;6.35;;;3.90;;
70414;SDS011;57837;52.064;113.478;2024-01-06T07:03:41;5.90;;;3.70;;
70414;SDS011;57837;52.064;113.478;2024-01-06T07:06:45;28.63;;;8.68;;
70414;SDS011;57837;52.064;113.478;2024-01-06T07:09:48;19.42;;;7.72;;
70414;SDS011;57837;52.064;113.478;2024-01-06T07:12:51;17.07;;;4.80;;
70414;SDS011;57837;52.064;113.478;2024-01-06T07:15:55;8.50;;;2.17;;
70414;SDS011;57837;52.064;113.478;2024-01-06T07:19:16;9.48;;;7.43;;
70414;SDS011;57837;52.064;113.478;2024-01-06T07:22:20;8.00;;;5.37;;
70414;SDS011;57837;52.064;113.478;2024-01-06T07:25:23;11.27;;;6.20;;
70414;SDS011;57837;52.064;113.478;2024-01-06T07:28:27;25.55;;;10.10;;
70414;SDS011;57837;52.064;113.478;2024-01-06T07:31:32;6.88;;;4.28;;
70414;SDS011;57837;52.064;113.478;2024-01-06T07:34:36;17.85;;;8.38;;
70414;SDS011;57837;52.064;113.478;2024-01-06T07:37:40;27.05;;;9.38;;
70414;SDS011;57837;52.064;113.478;2024-01-06T07:40:44;14.05;;;6.40;;
70414;SDS011;57837;52.064;113.478;2024-01-06T07:43:46;18.30;;;9.97;;
70414;SDS011;57837;52.064;113.478;2024-01-06T07:46:53;17.83;;;7.45;;
70414;SDS011;57837;52.064;113.478;2024-01-06T07:49:57;20.08;;;10.05;;
70414;SDS011;57837;52.064;113.478;2024-01-06T07:53:01;8.00;;;5.70;;
70414;SDS011;57837;52.064;113.478;2024-01-06T07:56:05;12.63;;;6.55;;
70414;SDS011;57837;52.064;113.478;2024-01-06T07:59:09;23.95;;;14.10;;
70414;SDS011;57837;52.064;113.478;2024-01-06T08:02:14;13.05;;;11.02;;
70414;SDS011;57837;52.064;113.478;2024-01-06T08:05:21;33.88;;;13.95;;
70414;SDS011;57837;52.064;113.478;2024-01-06T08:08:27;12.82;;;9.75;;
70414;SDS011;57837;52.064;113.478;2024-01-06T08:11:32;23.88;;;16.20;;
70414;SDS011;57837;52.064;113.478;2024-01-06T08:14:35;24.37;;;17.10;;
70414;SDS011;57837;52.064;113.478;2024-01-06T08:17:39;53.53;;;26.25;;
70414;SDS011;57837;52.064;113.478;2024-01-06T08:20:43;44.00;;;27.83;;
70414;SDS011;57837;52.064;113.478;2024-01-06T08:23:47;41.60;;;29.10;;
70414;SDS011;57837;52.064;113.478;2024-01-06T08:26:50;63.55;;;31.95;;
70414;SDS011;57837;52.064;113.478;2024-01-06T08:29:54;100.18;;;39.22;;
70414;SDS011;57837;52.064;113.478;2024-01-06T08:32:58;50.42;;;22.23;;
70414;SDS011;57837;52.064;113.478;2024-01-06T08:36:03;27.42;;;19.17;;
70414;SDS011;57837;52.064;113.478;2024-01-06T08:39:07;32.53;;;18.55;;
70414;SDS011;57837;52.064;113.478;2024-01-06T08:42:11;131.82;;;49.80;;
70414;SDS011;57837;52.064;113.478;2024-01-06T08:45:14;55.60;;;26.37;;
70414;SDS011;57837;52.064;113.478;2024-01-06T08:48:19;41.95;;;19.73;;
70414;SDS011;57837;52.064;113.478;2024-01-06T08:51:22;18.83;;;12.90;;
70414;SDS011;57837;52.064;113.478;2024-01-06T08:54:27;63.13;;;27.70;;
70414;SDS011;57837;52.064;113.478;2024-01-06T08:57:31;98.65;;;49.10;;
70414;SDS011;57837;52.064;113.478;2024-01-06T09:00:35;92.07;;;46.40;;
70414;SDS011;57837;52.064;113.478;2024-01-06T09:03:39;67.93;;;30.15;;
70414;SDS011;57837;52.064;113.478;2024-01-06T09:06:42;29.25;;;21.83;;
70414;SDS011;57837;52.064;113.478;2024-01-06T09:09:46;17.30;;;15.27;;
70414;SDS011;57837;52.064;113.478;2024-01-06T09:12:50;72.68;;;31.33;;
70414;SDS011;57837;52.064;113.478;2024-01-06T09:15:53;83.40;;;30.47;;
70414;SDS011;57837;52.064;113.478;2024-01-06T09:18:59;56.72;;;23.30;;
70414;SDS011;57837;52.064;113.478;2024-01-06T09:22:03;36.63;;;20.08;;
70414;SDS011;57837;52.064;113.478;2024-01-06T09:25:07;20.13;;;8.20;;
70414;SDS011;57837;52.064;113.478;2024-01-06T09:28:11;30.02;;;16.50;;
70414;SDS011;57837;52.064;113.478;2024-01-06T09:31:15;22.25;;;10.55;;
70414;SDS011;57837;52.064;113.478;2024-01-06T09:34:19;16.27;;;13.40;;
70414;SDS011;57837;52.064;113.478;2024-01-06T09:37:24;10.38;;;7.00;;
70414;SDS011;57837;52.064;113.478;2024-01-06T09:40:28;24.73;;;8.70;;
70414;SDS011;57837;52.064;113.478;2024-01-06T09:43:35;7.72;;;6.85;;
70414;SDS011;57837;52.064;113.478;2024-01-06T09:46:40;9.63;;;8.53;;
70414;SDS011;57837;52.064;113.478;2024-01-06T09:49:48;14.18;;;10.68;;
70414;SDS011;57837;52.064;113.478;2024-01-06T09:52:52;21.92;;;9.70;;
70414;SDS011;57837;52.064;113.478;2024-01-06T09:55:59;17.50;;;7.77;;
70414;SDS011;57837;52.064;113.478;2024-01-06T09:59:03;31.73;;;12.75;;
70414;SDS011;57837;52.064;113.478;2024-01-06T10:02:07;24.08;;;18.23;;
70414;SDS011;57837;52.064;113.478;2024-01-06T10:05:11;23.63;;;13.48;;
70414;SDS011;57837;52.064;113.478;2024-01-06T10:08:17;38.45;;;18.42;;
70414;SDS011;57837;52.064;113.478;2024-01-06T10:11:22;32.55;;;15.23;;
70414;SDS011;57837;52.064;113.478;2024-01-06T10:14:27;68.53;;;28.73;;
70414;SDS011;57837;52.064;113.478;2024-01-06T10:17:30;23.07;;;15.30;;
70414;SDS011;57837;52.064;113.478;2024-01-06T10:20:35;31.48;;;17.52;;
70414;SDS011;57837;52.064;113.478;2024-01-06T10:23:38;9.90;;;7.82;;
70414;SDS011;57837;52.064;113.478;2024-01-06T10:26:42;13.40;;;10.13;;
70414;SDS011;57837;52.064;113.478;2024-01-06T10:29:45;10.35;;;7.90;;
70414;SDS011;57837;52.064;113.478;2024-01-06T10:32:49;20.05;;;9.70;;
70414;SDS011;57837;52.064;113.478;2024-01-06T10:35:53;5.88;;;5.28;;
70414;SDS011;57837;52.064;113.478;2024-01-06T10:38:59;13.85;;;7.13;;
70414;SDS011;57837;52.064;113.478;2024-01-06T10:42:04;12.57;;;8.00;;
70414;SDS011;57837;52.064;113.478;2024-01-06T10:45:10;7.72;;;7.05;;
70414;SDS011;57837;52.064;113.478;2024-01-06T10:48:15;9.93;;;9.07;;
70414;SDS011;57837;52.064;113.478;2024-01-06T10:51:19;19.48;;;15.82;;
70414;SDS011;57837;52.064;113.478;2024-01-06T10:54:26;16.92;;;8.30;;
70414;SDS011;57837;52.064;113.478;2024-01-06T10:57:31;8.00;;;4.80;;
70414;SDS011;57837;52.064;113.478;2024-01-06T11:00:35;16.30;;;13.85;;
70414;SDS011;57837;52.064;113.478;2024-01-06T11:03:39;12.05;;;9.55;;
70414;SDS011;57837;52.064;113.478;2024-01-06T11:06:44;23.70;;;11.80;;
70414;SDS011;57837;52.064;113.478;2024-01-06T11:09:57;27.08;;;12.45;;
70414;SDS011;57837;52.064;113.478;2024-01-06T11:13:07;37.75;;;21.08;;
70414;SDS011;57837;52.064;113.478;2024-01-06T11:16:10;40.45;;;21.88;;
70414;SDS011;57837;52.064;113.478;2024-01-06T11:22:40;63.53;;;33.47;;
70414;SDS011;57837;52.064;113.478;2024-01-06T11:25:45;34.42;;;20.17;;
70414;SDS011;57837;52.064;113.478;2024-01-06T11:28:49;30.33;;;18.77;;
70414;SDS011;57837;52.064;113.478;2024-01-06T11:35:25;39.63;;;18.48;;
70414;SDS011;57837;52.064;113.478;2024-01-06T11:38:33;34.50;;;24.92;;
70414;SDS011;57837;52.064;113.478;2024-01-06T11:41:51;33.80;;;22.17;;
70414;SDS011;57837;52.064;113.478;2024-01-06T11:44:54;19.48;;;15.93;;
70414;SDS011;57837;52.064;113.478;2024-01-06T11:48:07;26.55;;;15.77;;
70414;SDS011;57837;52.064;113.478;2024-01-06T11:51:11;23.73;;;15.23;;
70414;SDS011;57837;52.064;113.478;2024-01-06T11:54:16;24.38;;;13.10;;
70414;SDS011;57837;52.064;113.478;2024-01-06T11:57:22;18.98;;;7.60;;
70414;SDS011;57837;52.064;113.478;2024-01-06T12:00:26;40.40;;;11.67;;
70414;SDS011;57837;52.064;113.478;2024-01-06T12:03:30;32.03;;;16.15;;
70414;SDS011;57837;52.064;113.478;2024-01-06T12:06:34;65.32;;;25.33;;
70414;SDS011;57837;52.064;113.478;2024-01-06T12:09:38;35.45;;;30.25;;
70414;SDS011;57837;52.064;113.478;2024-01-06T12:12:43;52.88;;;24.95;;
70414;SDS011;57837;52.064;113.478;2024-01-06T12:16:07;55.20;;;25.67;;
70414;SDS011;57837;52.064;113.478;2024-01-06T12:19:13;64.55;;;24.33;;
70414;SDS011;57837;52.064;113.478;2024-01-06T12:22:16;82.87;;;37.53;;
70414;SDS011;57837;52.064;113.478;2024-01-06T12:25:20;39.72;;;24.77;;
70414;SDS011;57837;52.064;113.478;2024-01-06T12:28:26;74.45;;;31.58;;
70414;SDS011;57837;52.064;113.478;2024-01-06T12:31:30;30.90;;;18.47;;
70414;SDS011;57837;52.064;113.478;2024-01-06T12:34:36;87.55;;;46.92;;
70414;SDS011;57837;52.064;113.478;2024-01-06T12:37:42;157.52;;;74.18;;
70414;SDS011;57837;52.064;113.478;2024-01-06T12:40:48;84.32;;;41.63;;
70414;SDS011;57837;52.064;113.478;2024-01-06T12:43:52;171.82;;;75.88;;
70414;SDS011;57837;52.064;113.478;2024-01-06T12:46:56;88.30;;;49.60;;
70414;SDS011;57837;52.064;113.478;2024-01-06T12:49:59;48.15;;;40.17;;
70414;SDS011;57837;52.064;113.478;2024-01-06T12:53:03;32.10;;;28.23;;
70414;SDS011;57837;52.064;113.478;2024-01-06T12:56:07;58.25;;;38.97;;
70414;SDS011;57837;52.064;113.478;2024-01-06T12:59:11;112.30;;;56.50;;
70414;SDS011;57837;52.064;113.478;2024-01-06T13:02:14;86.57;;;45.73;;
70414;SDS011;57837;52.064;113.478;2024-01-06T13:05:20;50.28;;;35.90;;
70414;SDS011;57837;52.064;113.478;2024-01-06T13:08:24;88.15;;;53.50;;
70414;SDS011;57837;52.064;113.478;2024-01-06T13:11:28;122.97;;;58.90;;
70414;SDS011;57837;52.064;113.478;2024-01-06T13:14:31;182.68;;;78.43;;
70414;SDS011;57837;52.064;113.478;2024-01-06T13:17:36;155.43;;;69.25;;
70414;SDS011;57837;52.064;113.478;2024-01-06T13:20:40;142.25;;;75.95;;
70414;SDS011;57837;52.064;113.478;2024-01-06T13:23:45;115.63;;;71.13;;
70414;SDS011;57837;52.064;113.478;2024-01-06T13:26:48;158.45;;;81.25;;
70414;SDS011;57837;52.064;113.478;2024-01-06T13:29:53;68.47;;;46.35;;
70414;SDS011;57837;52.064;113.478;2024-01-06T13:32:57;118.27;;;60.83;;
70414;SDS011;57837;52.064;113.478;2024-01-06T13:36:02;169.93;;;59.97;;
70414;SDS011;57837;52.064;113.478;2024-01-06T13:39:07;197.77;;;87.78;;
70414;SDS011;57837;52.064;113.478;2024-01-06T13:42:10;160.60;;;81.28;;
70414;SDS011;57837;52.064;113.478;2024-01-06T13:45:14;171.57;;;83.07;;
70414;SDS011;57837;52.064;113.478;2024-01-06T13:48:19;206.30;;;96.57;;
70414;SDS011;57837;52.064;113.478;2024-01-06T13:51:23;211.82;;;87.60;;
70414;SDS011;57837;52.064;113.478;2024-01-06T13:54:29;137.77;;;70.93;;
70414;SDS011;57837;52.064;113.478;2024-01-06T13:57:33;120.90;;;67.45;;
70414;SDS011;57837;52.064;113.478;2024-01-06T14:00:38;92.63;;;46.67;;
70414;SDS011;57837;52.064;113.478;2024-01-06T14:03:42;139.17;;;59.10;;
70414;SDS011;57837;52.064;113.478;2024-01-06T14:06:48;115.68;;;55.33;;
70414;SDS011;57837;52.064;113.478;2024-01-06T14:09:58;158.60;;;73.47;;
70414;SDS011;57837;52.064;113.478;2024-01-06T14:13:02;144.50;;;67.35;;
70414;SDS011;57837;52.064;113.478;2024-01-06T14:16:06;176.40;;;73.60;;
70414;SDS011;57837;52.064;113.478;2024-01-06T14:19:11;63.22;;;36.22;;
70414;SDS011;57837;52.064;113.478;2024-01-06T14:22:15;98.28;;;43.78;;
70414;SDS011;57837;52.064;113.478;2024-01-06T14:25:20;73.70;;;35.63;;
70414;SDS011;57837;52.064;113.478;2024-01-06T14:28:24;75.32;;;36.15;;
70414;SDS011;57837;52.064;113.478;2024-01-06T14:31:27;67.95;;;33.85;;
70414;SDS011;57837;52.064;113.478;2024-01-06T14:34:31;63.67;;;29.20;;
70414;SDS011;57837;52.064;113.478;2024-01-06T14:37:34;54.13;;;30.75;;
70414;SDS011;57837;52.064;113.478;2024-01-06T14:40:37;141.90;;;55.25;;
70414;SDS011;57837;52.064;113.478;2024-01-06T14:43:41;131.30;;;45.85;;
70414;SDS011;57837;52.064;113.478;2024-01-06T14:46:46;44.20;;;24.83;;
70414;SDS011;57837;52.064;113.478;2024-01-06T14:49:50;55.88;;;28.35;;
70414;SDS011;57837;52.064;113.478;2024-01-06T14:52:54;122.35;;;58.45;;
70414;SDS011;57837;52.064;113.478;2024-01-06T14:55:58;96.67;;;46.43;;
70414;SDS011;57837;52.064;113.478;2024-01-06T14:59:04;62.90;;;31.75;;
70414;SDS011;57837;52.064;113.478;2024-01-06T15:02:09;66.53;;;22.80;;
70414;SDS011;57837;52.064;113.478;2024-01-06T15:05:12;46.67;;;30.90;;
70414;SDS011;57837;52.064;113.478;2024-01-06T15:08:16;152.50;;;59.40;;
70414;SDS011;57837;52.064;113.478;2024-01-06T15:11:23;160.77;;;71.53;;
70414;SDS011;57837;52.064;113.478;2024-01-06T15:14:26;126.65;;;62.92;;
70414;SDS011;57837;52.064;113.478;2024-01-06T15:17:30;173.38;;;68.93;;
70414;SDS011;57837;52.064;113.478;2024-01-06T15:20:34;111.07;;;51.30;;
70414;SDS011;57837;52.064;113.478;2024-01-06T15:23:38;41.65;;;30.92;;
70414;SDS011;57837;52.064;113.478;2024-01-06T15:26:42;116.33;;;43.27;;
70414;SDS011;57837;52.064;113.478;2024-01-06T15:29:46;90.43;;;44.20;;
70414;SDS011;57837;52.064;113.478;2024-01-06T15:32:50;97.53;;;35.25;;
70414;SDS011;57837;52.064;113.478;2024-01-06T15:35:54;125.27;;;55.70;;
70414;SDS011;57837;52.064;113.478;2024-01-06T15:38:58;82.63;;;39.47;;
70414;SDS011;57837;52.064;113.478;2024-01-06T15:42:02;131.18;;;52.38;;
70414;SDS011;57837;52.064;113.478;2024-01-06T15:45:05;155.20;;;59.92;;
70414;SDS011;57837;52.064;113.478;2024-01-06T15:48:10;183.63;;;71.10;;
70414;SDS011;57837;52.064;113.478;2024-01-06T15:51:14;191.82;;;75.38;;
70414;SDS011;57837;52.064;113.478;2024-01-06T15:54:18;146.95;;;62.50;;
70414;SDS011;57837;52.064;113.478;2024-01-06T15:57:24;138.37;;;62.13;;
70414;SDS011;57837;52.064;113.478;2024-01-06T16:00:31;102.43;;;48.83;;
70414;SDS011;57837;52.064;113.478;2024-01-06T16:03:39;188.77;;;78.00;;
70414;SDS011;57837;52.064;113.478;2024-01-06T16:06:43;57.60;;;33.53;;
70414;SDS011;57837;52.064;113.478;2024-01-06T16:10:04;93.80;;;48.33;;
70414;SDS011;57837;52.064;113.478;2024-01-06T16:13:09;132.00;;;61.47;;
70414;SDS011;57837;52.064;113.478;2024-01-06T16:16:13;162.50;;;72.65;;
70414;SDS011;57837;52.064;113.478;2024-01-06T16:19:16;92.18;;;34.50;;
70414;SDS011;57837;52.064;113.478;2024-01-06T16:22:21;164.00;;;71.28;;
70414;SDS011;57837;52.064;113.478;2024-01-06T16:25:24;82.82;;;55.10;;
70414;SDS011;57837;52.064;113.478;2024-01-06T16:28:28;138.47;;;71.30;;
70414;SDS011;57837;52.064;113.478;2024-01-06T16:31:31;190.77;;;60.58;;
70414;SDS011;57837;52.064;113.478;2024-01-06T16:34:36;182.48;;;78.82;;
70414;SDS011;57837;52.064;113.478;2024-01-06T16:37:41;162.00;;;66.33;;
70414;SDS011;57837;52.064;113.478;2024-01-06T16:40:47;66.75;;;44.22;;
70414;SDS011;57837;52.064;113.478;2024-01-06T16:43:50;80.00;;;46.92;;
70414;SDS011;57837;52.064;113.478;2024-01-06T16:46:54;134.48;;;58.10;;
70414;SDS011;57837;52.064;113.478;2024-01-06T16:50:01;92.75;;;48.72;;
70414;SDS011;57837;52.064;113.478;2024-01-06T16:53:05;179.85;;;70.18;;
70414;SDS011;57837;52.064;113.478;2024-01-06T16:56:09;223.88;;;82.85;;
70414;SDS011;57837;52.064;113.478;2024-01-06T16:59:14;205.63;;;85.80;;
70414;SDS011;57837;52.064;113.478;2024-01-06T17:02:21;123.93;;;61.08;;
70414;SDS011;57837;52.064;113.478;2024-01-06T17:05:24;124.15;;;54.58;;
70414;SDS011;57837;52.064;113.478;2024-01-06T17:08:28;133.77;;;55.57;;
70414;SDS011;57837;52.064;113.478;2024-01-06T17:11:32;152.23;;;76.55;;
70414;SDS011;57837;52.064;113.478;2024-01-06T17:14:37;129.93;;;63.38;;
70414;SDS011;57837;52.064;113.478;2024-01-06T17:17:45;173.77;;;63.92;;
70414;SDS011;57837;52.064;113.478;2024-01-06T17:20:49;146.43;;;60.38;;
70414;SDS011;57837;52.064;113.478;2024-01-06T17:23:53;82.75;;;51.47;;
70414;SDS011;57837;52.064;113.478;2024-01-06T17:26:58;160.90;;;70.93;;
70414;SDS011;57837;52.064;113.478;2024-01-06T17:30:02;73.43;;;41.50;;
70414;SDS011;57837;52.064;113.478;2024-01-06T17:33:05;181.10;;;66.45;;
70414;SDS011;57837;52.064;113.478;2024-01-06T17:36:08;85.85;;;46.00;;
70414;SDS011;57837;52.064;113.478;2024-01-06T17:39:12;142.40;;;67.83;;
70414;SDS011;57837;52.064;113.478;2024-01-06T17:42:16;100.82;;;54.75;;